Time;durP1;ratioP1;P1;durP2;ratioP2;P2;SDS_P1;SDS_P2;PMS_P1;PMS_P2;Temp;Humidity;BMP_temperature;BMP_pressure;BME280_temperature;BME280_humidity;BME280_pressure;Samples;Min_cycle;Max_cycle;Signal;HPM_P1;HPM_P2
2021/07/31 00:01:29;;;;;;;1999.90;999.90;;;17.40;99.90;;;;;;4976688;28;20177;-66
2021/07/31 00:03:55;;;;;;;1999.90;999.90;;;17.40;99.90;;;;;;4976386;28;20433;-67
2021/07/31 00:06:20;;;;;;;1999.90;999.90;;;17.40;99.90;;;;;;4976519;28;20228;-66
2021/07/31 00:08:46;;;;;;;1999.90;999.90;;;17.50;99.90;;;;;;4976370;28;20453;-67
2021/07/31 00:11:12;;;;;;;1999.90;999.90;;;17.40;99.90;;;;;;4976627;28;20178;-66
2021/07/31 00:13:38;;;;;;;1999.90;999.90;;;17.40;99.90;;;;;;4976339;28;20255;-67
2021/07/31 00:16:04;;;;;;;1999.90;999.90;;;17.40;99.90;;;;;;4976240;28;20435;-66
2021/07/31 00:18:30;;;;;;;1999.90;999.90;;;17.40;99.90;;;;;;4976378;28;20413;-66
2021/07/31 00:20:57;;;;;;;1999.90;999.90;;;17.30;99.90;;;;;;4976257;28;20441;-66
2021/07/31 00:23:26;;;;;;;1999.90;999.90;;;17.40;99.90;;;;;;4976408;28;20210;-66
2021/07/31 00:25:55;;;;;;;1999.90;999.90;;;17.40;99.90;;;;;;4975865;28;20418;-68
2021/07/31 00:28:25;;;;;;;1999.90;999.90;;;17.40;99.90;;;;;;4976144;28;20413;-66
2021/07/31 00:30:51;;;;;;;1999.90;999.90;;;17.40;99.90;;;;;;4976107;28;20514;-67
2021/07/31 00:33:16;;;;;;;1999.90;999.90;;;17.40;99.90;;;;;;4976104;28;20413;-66
2021/07/31 00:35:42;;;;;;;1999.90;999.90;;;17.30;99.90;;;;;;4975721;28;20406;-67
2021/07/31 00:38:08;;;;;;;1999.90;999.90;;;17.30;99.90;;;;;;4976021;28;20185;-67
2021/07/31 00:40:35;;;;;;;1999.90;999.90;;;17.20;99.90;;;;;;4975693;28;20461;-66
2021/07/31 00:43:06;;;;;;;1999.90;999.90;;;17.20;99.90;;;;;;4976069;28;20410;-67
2021/07/31 00:45:32;;;;;;;1999.90;999.90;;;17.20;99.90;;;;;;4975657;28;20413;-66
2021/07/31 00:47:58;;;;;;;1999.90;999.90;;;17.20;99.90;;;;;;4975804;28;20452;-67
2021/07/31 00:50:24;;;;;;;1999.90;999.90;;;17.20;99.90;;;;;;4975712;28;20648;-67
2021/07/31 00:52:50;;;;;;;1999.90;999.90;;;17.20;99.90;;;;;;4975654;28;20175;-67
2021/07/31 00:55:16;;;;;;;1999.90;999.90;;;17.20;99.90;;;;;;4975421;28;20179;-67
2021/07/31 00:57:45;;;;;;;1999.90;999.90;;;17.20;99.90;;;;;;4975592;28;20418;-66
2021/07/31 01:00:12;;;;;;;1999.90;999.90;;;17.10;99.90;;;;;;4975629;28;20198;-67
2021/07/31 01:02:37;;;;;;;1999.90;999.90;;;17.10;99.90;;;;;;4975578;28;20471;-66
2021/07/31 01:05:04;;;;;;;1999.90;999.90;;;17.00;99.90;;;;;;4975278;28;20432;-67
2021/07/31 01:07:29;;;;;;;1999.90;999.90;;;17.00;99.90;;;;;;4974578;28;20618;-67
2021/07/31 01:09:55;;;;;;;1999.90;999.90;;;16.90;99.90;;;;;;4975315;28;20442;-67
2021/07/31 01:12:21;;;;;;;1999.90;999.90;;;16.80;99.90;;;;;;4975395;28;20174;-67
2021/07/31 01:14:46;;;;;;;1999.90;999.90;;;16.80;99.90;;;;;;4975030;28;20253;-67
2021/07/31 01:17:13;;;;;;;1999.90;999.90;;;16.80;99.90;;;;;;4975345;28;20714;-67
2021/07/31 01:19:39;;;;;;;1999.90;999.90;;;16.80;99.90;;;;;;4975141;28;20205;-67
2021/07/31 01:22:05;;;;;;;1999.90;999.90;;;16.80;99.90;;;;;;4975236;28;20423;-67
2021/07/31 01:24:30;;;;;;;1999.90;999.90;;;16.80;99.90;;;;;;4974885;28;20416;-67
2021/07/31 01:26:56;;;;;;;1999.90;999.90;;;16.80;99.90;;;;;;4975080;28;20456;-67
2021/07/31 01:29:22;;;;;;;1999.90;999.90;;;16.80;99.90;;;;;;4975042;28;20569;-67
2021/07/31 01:31:48;;;;;;;1999.90;999.90;;;16.90;99.90;;;;;;4975081;28;20175;-66
2021/07/31 01:34:13;;;;;;;1999.90;999.90;;;16.90;99.90;;;;;;4974743;28;20413;-67
2021/07/31 01:36:39;;;;;;;1999.90;999.90;;;17.00;99.90;;;;;;4975046;28;20187;-67
2021/07/31 01:39:05;;;;;;;1999.90;999.90;;;17.00;99.90;;;;;;4974699;28;20182;-67
2021/07/31 01:41:31;;;;;;;1999.90;999.90;;;17.00;99.90;;;;;;4974896;28;20599;-67
2021/07/31 01:43:57;;;;;;;1999.90;999.90;;;17.00;99.90;;;;;;4974627;28;20974;-67
2021/07/31 01:46:23;;;;;;;1999.90;999.90;;;17.00;99.90;;;;;;4974703;28;20199;-67
2021/07/31 01:48:49;;;;;;;1999.90;999.90;;;17.00;99.90;;;;;;4974634;28;20416;-67
2021/07/31 01:51:15;;;;;;;1999.90;999.90;;;17.00;99.90;;;;;;4974670;28;20184;-67
2021/07/31 01:53:40;;;;;;;1999.90;999.90;;;17.00;99.90;;;;;;4974545;28;20410;-67
2021/07/31 01:56:07;;;;;;;1999.90;999.90;;;17.00;99.90;;;;;;4974512;28;20426;-67
2021/07/31 01:58:32;;;;;;;1999.90;999.90;;;17.10;99.90;;;;;;4974564;28;20190;-67
2021/07/31 02:00:59;;;;;;;1999.90;999.90;;;17.00;99.90;;;;;;4974421;28;21015;-67
2021/07/31 02:03:25;;;;;;;1999.90;999.90;;;17.00;99.90;;;;;;4974398;28;20184;-67
2021/07/31 02:05:51;;;;;;;1999.90;999.90;;;17.00;99.90;;;;;;4974382;28;20977;-67
2021/07/31 02:08:17;;;;;;;1999.90;999.90;;;17.00;99.90;;;;;;4974330;28;20414;-67
2021/07/31 02:10:43;;;;;;;1999.90;999.90;;;17.00;99.90;;;;;;4974273;28;20193;-67
2021/07/31 02:13:09;;;;;;;1999.90;999.90;;;16.90;99.90;;;;;;4974246;28;20178;-67
2021/07/31 02:15:40;;;;;;;1999.90;999.90;;;16.90;99.90;;;;;;4974055;28;20764;-67
2021/07/31 02:18:05;;;;;;;1999.90;999.90;;;16.80;99.90;;;;;;4974242;28;20448;-67
2021/07/31 02:20:31;;;;;;;1999.90;999.90;;;16.80;99.90;;;;;;4974093;28;20435;-67
2021/07/31 02:22:57;;;;;;;1999.90;999.90;;;16.80;99.90;;;;;;4974036;28;20190;-66
2021/07/31 02:25:22;;;;;;;1999.90;999.90;;;16.80;99.90;;;;;;4973893;28;20196;-67
2021/07/31 02:27:50;;;;;;;1999.90;999.90;;;16.70;99.90;;;;;;4973961;28;20717;-67
2021/07/31 02:30:16;;;;;;;1999.90;999.90;;;16.70;99.90;;;;;;4973883;28;20186;-67
2021/07/31 02:32:42;;;;;;;1999.90;999.90;;;16.70;99.90;;;;;;4973872;28;20425;-68
2021/07/31 02:35:09;;;;;;;1999.90;999.90;;;16.60;99.90;;;;;;4973700;28;20795;-67
2021/07/31 02:37:35;;;;;;;1999.90;999.90;;;16.60;99.90;;;;;;4973842;28;20410;-67
2021/07/31 02:40:00;;;;;;;1999.90;999.90;;;16.70;99.90;;;;;;4973642;28;20453;-67
2021/07/31 02:42:26;;;;;;;1999.90;999.90;;;16.60;99.90;;;;;;4973770;28;20284;-67
2021/07/31 02:44:51;;;;;;;1999.90;999.90;;;16.70;99.90;;;;;;4973430;28;20181;-67
2021/07/31 02:47:17;;;;;;;1999.90;999.90;;;16.70;99.90;;;;;;4973697;28;20214;-68
2021/07/31 02:49:42;;;;;;;1999.90;999.90;;;16.70;99.90;;;;;;4973746;28;20292;-67
2021/07/31 02:52:08;;;;;;;1999.90;999.90;;;16.70;99.90;;;;;;4973551;28;20179;-67
2021/07/31 02:54:34;;;;;;;1999.90;999.90;;;16.80;99.90;;;;;;4973286;28;20642;-67
2021/07/31 02:57:00;;;;;;;1999.90;999.90;;;16.80;99.90;;;;;;4973621;28;20178;-67
2021/07/31 02:59:26;;;;;;;1999.90;999.90;;;16.80;99.90;;;;;;4973438;28;20463;-67
2021/07/31 03:01:51;;;;;;;1999.90;999.90;;;16.80;99.90;;;;;;4973433;28;20829;-67
2021/07/31 03:04:17;;;;;;;1999.90;999.90;;;16.80;99.90;;;;;;4973161;28;20174;-67
2021/07/31 03:06:42;;;;;;;1999.90;999.90;;;16.80;99.90;;;;;;4973256;28;20558;-67
2021/07/31 03:09:08;;;;;;;1999.90;999.90;;;16.80;99.90;;;;;;4973585;28;20193;-67
2021/07/31 03:11:34;;;;;;;1999.90;999.90;;;16.80;99.90;;;;;;4973417;28;20281;-67
2021/07/31 03:13:59;;;;;;;1999.90;999.90;;;16.90;99.90;;;;;;4973009;28;20178;-67
2021/07/31 03:16:25;;;;;;;1999.90;999.90;;;16.90;99.90;;;;;;4973230;28;20176;-67
2021/07/31 03:18:50;;;;;;;1999.90;999.90;;;16.90;99.90;;;;;;5050481;23;20606;-68
2021/07/31 03:21:16;;;;;;;1999.90;999.90;;;16.90;99.90;;;;;;5031970;28;20164;-68
2021/07/31 03:23:41;;;;;;;1999.90;999.90;;;17.00;99.90;;;;;;5031896;28;20572;-68
2021/07/31 03:26:07;;;;;;;1999.90;999.90;;;17.00;99.90;;;;;;5031643;28;20245;-69
2021/07/31 03:28:32;;;;;;;1999.90;999.90;;;17.00;99.90;;;;;;5031827;28;20529;-69
2021/07/31 03:30:58;;;;;;;1999.90;999.90;;;17.00;99.90;;;;;;5031460;28;20172;-68
2021/07/31 03:33:24;;;;;;;1999.90;999.90;;;17.00;99.90;;;;;;5031936;28;20192;-69
2021/07/31 03:35:54;;;;;;;1999.90;999.90;;;16.90;99.90;;;;;;5031621;28;20409;-68
2021/07/31 03:38:20;;;;;;;1999.90;999.90;;;16.90;99.90;;;;;;5031787;28;20502;-68
2021/07/31 03:40:46;;;;;;;1999.90;999.90;;;16.90;99.90;;;;;;5031799;28;20409;-68
2021/07/31 03:43:13;;;;;;;1999.90;999.90;;;16.90;99.90;;;;;;5031719;28;21114;-68
2021/07/31 03:45:39;;;;;;;1999.90;999.90;;;16.80;99.90;;;;;;5031395;28;20501;-69
2021/07/31 03:48:05;;;;;;;1999.90;999.90;;;16.80;99.90;;;;;;5031602;28;21036;-68
2021/07/31 03:50:31;;;;;;;1999.90;999.90;;;16.80;99.90;;;;;;5031659;28;20165;-68
2021/07/31 03:52:56;;;;;;;1999.90;999.90;;;16.80;99.90;;;;;;5031655;28;20908;-69
2021/07/31 03:55:23;;;;;;;1999.90;999.90;;;16.80;99.90;;;;;;5031356;28;20172;-68
2021/07/31 03:57:49;;;;;;;1999.90;999.90;;;16.80;99.90;;;;;;5031453;28;20258;-69
2021/07/31 04:00:15;;;;;;;1999.90;999.90;;;16.80;99.90;;;;;;5031622;28;20418;-69
2021/07/31 04:02:40;;;;;;;1999.90;999.90;;;16.80;99.90;;;;;;5031604;28;20183;-69
2021/07/31 04:05:06;;;;;;;1999.90;999.90;;;16.80;99.90;;;;;;5031163;28;20782;-68
2021/07/31 04:07:32;;;;;;;1999.90;999.90;;;16.80;99.90;;;;;;5031398;28;20252;-70
2021/07/31 04:09:58;;;;;;;1999.90;999.90;;;16.70;99.90;;;;;;5031507;28;20403;-68
2021/07/31 04:12:23;;;;;;;1999.90;999.90;;;16.70;99.90;;;;;;5031468;28;20170;-69
2021/07/31 04:14:49;;;;;;;1999.90;999.90;;;16.80;99.90;;;;;;5031167;28;20178;-68
2021/07/31 04:17:14;;;;;;;1999.90;999.90;;;16.70;99.90;;;;;;5031347;28;20550;-68
2021/07/31 04:19:40;;;;;;;1999.90;999.90;;;16.70;99.90;;;;;;5031291;28;20184;-68
2021/07/31 04:22:05;;;;;;;1999.90;999.90;;;16.70;99.90;;;;;;5031429;28;20172;-68
2021/07/31 04:24:31;;;;;;;1999.90;999.90;;;16.70;99.90;;;;;;5031165;28;20176;-69
2021/07/31 04:26:57;;;;;;;1999.90;999.90;;;16.70;99.90;;;;;;5031301;28;20230;-68
2021/07/31 04:29:22;;;;;;;1999.90;999.90;;;16.70;99.90;;;;;;5031278;28;20466;-68
2021/07/31 04:31:48;;;;;;;1999.90;999.90;;;16.70;99.90;;;;;;5031377;28;20179;-69
2021/07/31 04:34:15;;;;;;;1999.90;999.90;;;16.70;99.90;;;;;;5031030;28;20173;-69
2021/07/31 04:36:40;;;;;;;1999.90;999.90;;;16.60;99.90;;;;;;5031277;28;20462;-68
2021/07/31 04:39:07;;;;;;;1999.90;999.90;;;16.70;99.90;;;;;;5031136;28;20835;-69
2021/07/31 04:41:33;;;;;;;1999.90;999.90;;;16.70;99.90;;;;;;5031310;28;20425;-69
2021/07/31 04:43:59;;;;;;;1999.90;999.90;;;16.70;99.90;;;;;;5034388;28;20418;-68
2021/07/31 04:46:25;;;;;;;1999.90;999.90;;;16.70;99.90;;;;;;5034620;28;20454;-70
2021/07/31 04:48:50;;;;;;;1999.90;999.90;;;16.70;99.90;;;;;;5034556;28;20436;-70
2021/07/31 04:51:16;;;;;;;1999.90;999.90;;;16.70;99.90;;;;;;5034583;28;20257;-70
2021/07/31 04:53:42;;;;;;;1999.90;999.90;;;16.70;99.90;;;;;;5034502;28;20656;-70
2021/07/31 04:56:07;;;;;;;1999.90;999.90;;;16.70;99.90;;;;;;5034247;28;20244;-70
2021/07/31 04:58:33;;;;;;;1999.90;999.90;;;16.70;99.90;;;;;;5034420;28;20201;-70
2021/07/31 05:00:59;;;;;;;1999.90;999.90;;;16.80;99.90;;;;;;5034431;28;20204;-71
2021/07/31 05:03:27;;;;;;;1999.90;999.90;;;16.80;99.90;;;;;;5034512;28;20692;-70
2021/07/31 05:05:52;;;;;;;1999.90;999.90;;;16.70;99.90;;;;;;5033980;28;20569;-69
2021/07/31 05:08:18;;;;;;;1999.90;999.90;;;16.70;99.90;;;;;;5034215;28;20436;-69
2021/07/31 05:10:46;;;;;;;1999.90;999.90;;;16.70;99.90;;;;;;5034244;28;20179;-69
2021/07/31 05:13:12;;;;;;;1999.90;999.90;;;16.70;99.90;;;;;;5034242;28;20198;-70
2021/07/31 05:15:39;;;;;;;1999.90;999.90;;;16.70;99.90;;;;;;5033941;28;20906;-70
2021/07/31 05:18:06;;;;;;;1999.90;999.90;;;16.70;99.90;;;;;;5033956;28;20906;-70
2021/07/31 05:20:33;;;;;;;1999.90;999.90;;;16.70;99.90;;;;;;5033950;28;20425;-70
2021/07/31 05:22:59;;;;;;;1999.90;999.90;;;16.70;99.90;;;;;;5033996;28;20414;-69
2021/07/31 05:25:25;;;;;;;1999.90;999.90;;;16.70;99.90;;;;;;5033613;28;20414;-70
2021/07/31 05:27:51;;;;;;;1999.90;999.90;;;16.80;99.90;;;;;;5033726;28;20866;-69
2021/07/31 05:30:17;;;;;;;1999.90;999.90;;;16.80;99.90;;;;;;5034004;28;20408;-70
2021/07/31 05:32:43;;;;;;;1999.90;999.90;;;16.80;99.90;;;;;;5033885;28;20494;-70
2021/07/31 05:35:09;;;;;;;1999.90;999.90;;;16.80;99.90;;;;;;5033493;28;20493;-70
2021/07/31 05:37:34;;;;;;;1999.90;999.90;;;16.80;99.90;;;;;;5033724;28;20201;-70
2021/07/31 05:40:01;;;;;;;1999.90;999.90;;;16.80;99.90;;;;;;5033658;28;20417;-70
2021/07/31 05:42:27;;;;;;;1999.90;999.90;;;16.80;99.90;;;;;;5033903;28;20207;-70
2021/07/31 05:45:00;;;;;;;1999.90;999.90;;;16.90;99.90;;;;;;5033280;28;20854;-70
2021/07/31 05:47:27;;;;;;;1999.90;999.90;;;16.80;99.90;;;;;;5033295;28;20554;-70
2021/07/31 05:49:54;;;;;;;1999.90;999.90;;;16.90;99.90;;;;;;5033527;28;20912;-70
2021/07/31 05:52:20;;;;;;;1999.90;999.90;;;16.90;99.90;;;;;;5033389;28;20423;-70
2021/07/31 05:54:47;;;;;;;1999.90;999.90;;;16.90;99.90;;;;;;5032869;28;20498;-70
2021/07/31 05:57:13;;;;;;;1999.90;999.90;;;17.00;99.90;;;;;;5033300;28;20413;-71
2021/07/31 05:59:39;;;;;;;1999.90;999.90;;;17.00;99.90;;;;;;5033373;28;20818;-70
2021/07/31 06:02:06;;;;;;;1999.90;999.90;;;17.00;99.90;;;;;;5033294;28;20407;-71
2021/07/31 06:04:32;;;;;;;1999.90;999.90;;;17.00;99.90;;;;;;5032966;28;20184;-69
2021/07/31 06:07:00;;;;;;;1999.90;999.90;;;17.10;99.90;;;;;;5033001;28;20465;-70
2021/07/31 06:09:26;;;;;;;1999.90;999.90;;;17.00;99.90;;;;;;5032992;28;20455;-70
2021/07/31 06:11:51;;;;;;;1999.90;999.90;;;17.10;99.90;;;;;;5033058;28;20437;-70
2021/07/31 06:14:17;;;;;;;1999.90;999.90;;;17.10;99.90;;;;;;5032757;28;20930;-70
2021/07/31 06:16:43;;;;;;;1999.90;999.90;;;17.10;99.90;;;;;;5032959;28;20182;-70
2021/07/31 06:19:08;;;;;;;1999.90;999.90;;;17.20;99.90;;;;;;5032773;28;20248;-70
2021/07/31 06:21:34;;;;;;;1999.90;999.90;;;17.30;99.90;;;;;;5032915;28;20179;-70
2021/07/31 06:23:59;;;;;;;1999.90;999.90;;;17.30;99.90;;;;;;5032589;28;20179;-70
2021/07/31 06:26:25;;;;;;;1999.90;999.90;;;17.30;99.90;;;;;;5032909;28;20295;-71
2021/07/31 06:28:51;;;;;;;1999.90;999.90;;;17.30;99.90;;;;;;5032781;28;20662;-70
2021/07/31 06:31:16;;;;;;;1999.90;999.90;;;17.20;99.90;;;;;;5032734;28;20180;-70
2021/07/31 06:33:42;;;;;;;1999.90;999.90;;;17.30;99.90;;;;;;5032563;28;20630;-70
2021/07/31 06:36:08;;;;;;;1999.90;999.90;;;17.30;99.90;;;;;;5032419;28;20172;-69
2021/07/31 06:38:33;;;;;;;1999.90;999.90;;;17.30;99.90;;;;;;5032577;28;20189;-70
2021/07/31 06:40:59;;;;;;;1999.90;999.90;;;17.40;99.90;;;;;;5032574;28;20404;-70
2021/07/31 06:43:25;;;;;;;1999.90;999.90;;;17.50;99.90;;;;;;5032554;28;20250;-70
2021/07/31 06:45:50;;;;;;;1999.90;999.90;;;17.50;99.90;;;;;;5032270;28;20168;-71
2021/07/31 06:48:16;;;;;;;1999.90;999.90;;;17.70;99.90;;;;;;5032306;28;20631;-70
2021/07/31 06:50:41;;;;;;;1999.90;999.90;;;17.70;99.90;;;;;;5032362;28;20581;-70
2021/07/31 06:53:07;;;;;;;1999.90;999.90;;;17.80;99.90;;;;;;5032615;28;20209;-70
2021/07/31 06:55:32;;;;;;;1999.90;999.90;;;17.80;99.90;;;;;;5032098;28;20222;-70
2021/07/31 06:57:58;;;;;;;1999.90;999.90;;;17.80;99.90;;;;;;5032065;28;20215;-70
2021/07/31 07:00:24;;;;;;;1999.90;999.90;;;17.80;99.90;;;;;;5032213;28;20183;-71
2021/07/31 07:02:50;;;;;;;1999.90;999.90;;;17.90;99.90;;;;;;5032224;28;20646;-71
2021/07/31 07:05:15;;;;;;;1999.90;999.90;;;17.90;99.90;;;;;;5031221;28;20407;-70
2021/07/31 07:07:41;;;;;;;1999.90;999.90;;;17.90;99.90;;;;;;5032252;28;20276;-70
2021/07/31 07:10:07;;;;;;;1999.90;999.90;;;18.00;99.90;;;;;;5032198;28;20171;-70
2021/07/31 07:12:32;;;;;;;1999.90;999.90;;;18.10;99.90;;;;;;5032199;28;20172;-70
2021/07/31 07:14:58;;;;;;;1999.90;999.90;;;18.10;99.90;;;;;;5031818;28;20452;-70
2021/07/31 07:17:24;;;;;;;1999.90;999.90;;;18.10;99.90;;;;;;5031860;28;20645;-70
2021/07/31 07:19:49;;;;;;;1999.90;999.90;;;18.10;99.90;;;;;;5031972;28;20176;-70
2021/07/31 07:22:15;;;;;;;1999.90;999.90;;;18.10;99.90;;;;;;5031925;28;20211;-70
2021/07/31 07:24:40;;;;;;;1999.90;999.90;;;18.10;99.90;;;;;;5031629;28;20626;-70
2021/07/31 07:27:06;;;;;;;1999.90;999.90;;;18.10;99.90;;;;;;5031869;28;20200;-69
2021/07/31 07:29:32;;;;;;;1999.90;999.90;;;18.00;99.90;;;;;;5031831;28;20189;-70
2021/07/31 07:31:57;;;;;;;1999.90;999.90;;;18.10;99.90;;;;;;5031936;28;20543;-70
2021/07/31 07:34:23;;;;;;;1999.90;999.90;;;18.20;99.90;;;;;;5031595;28;20218;-70
2021/07/31 07:36:49;;;;;;;1999.90;999.90;;;18.20;99.90;;;;;;5031807;28;20186;-71
2021/07/31 07:39:14;;;;;;;1999.90;999.90;;;18.30;99.90;;;;;;5031839;28;20195;-69
2021/07/31 07:41:40;;;;;;;1999.90;999.90;;;18.40;99.90;;;;;;5031847;28;20191;-70
2021/07/31 07:44:05;;;;;;;1999.90;999.90;;;18.30;99.90;;;;;;5031589;28;20232;-70
2021/07/31 07:46:31;;;;;;;1999.90;999.90;;;18.40;99.90;;;;;;5031663;28;20228;-70
2021/07/31 07:48:57;;;;;;;1999.90;999.90;;;18.40;99.90;;;;;;5031726;28;20205;-70
2021/07/31 07:51:22;;;;;;;1999.90;999.90;;;18.30;99.90;;;;;;5031669;28;20334;-70
2021/07/31 07:53:48;;;;;;;1999.90;999.90;;;18.30;99.90;;;;;;5031517;28;20174;-69
2021/07/31 07:56:13;;;;;;;1999.90;999.90;;;18.30;99.90;;;;;;5031651;28;20529;-71
2021/07/31 07:58:39;;;;;;;1999.90;999.90;;;18.30;99.90;;;;;;5031707;28;20257;-71
2021/07/31 08:01:09;;;;;;;1999.90;999.90;;;18.40;99.90;;;;;;5031730;28;20647;-69
2021/07/31 08:03:34;;;;;;;1999.90;999.90;;;18.50;99.90;;;;;;5031572;28;20170;-69
2021/07/31 08:06:00;;;;;;;1999.90;999.90;;;18.60;99.90;;;;;;5031209;28;20912;-69
2021/07/31 08:08:26;;;;;;;1999.90;999.90;;;18.70;99.90;;;;;;5031865;28;20523;-69
2021/07/31 08:10:52;;;;;;;1999.90;999.90;;;18.80;99.90;;;;;;5031764;28;20172;-69
2021/07/31 08:13:18;;;;;;;1999.90;999.90;;;18.80;99.90;;;;;;5031654;28;20403;-69
2021/07/31 08:15:44;;;;;;;1999.90;999.90;;;18.80;99.90;;;;;;5031649;28;20399;-69
2021/07/31 08:18:11;;;;;;;1999.90;999.90;;;18.60;99.90;;;;;;5035161;28;20449;-69
2021/07/31 08:20:36;;;;;;;1999.90;999.90;;;18.60;99.90;;;;;;5035170;28;20216;-69
2021/07/31 08:23:03;;;;;;;1999.90;999.90;;;18.60;99.90;;;;;;5035225;28;20474;-69
2021/07/31 08:25:28;;;;;;;1999.90;999.90;;;18.60;99.90;;;;;;5034916;28;20172;-69
2021/07/31 08:27:54;;;;;;;1999.90;999.90;;;18.70;99.90;;;;;;5034988;28;20459;-71
2021/07/31 08:30:20;;;;;;;1999.90;999.90;;;18.60;99.90;;;;;;5035090;28;20547;-70
2021/07/31 08:32:46;;;;;;;1999.90;999.90;;;18.60;99.90;;;;;;5035024;28;20486;-69
2021/07/31 08:35:11;;;;;;;1999.90;999.90;;;18.60;99.90;;;;;;5034701;28;20251;-69
2021/07/31 08:37:38;;;;;;;1999.90;999.90;;;18.60;99.90;;;;;;5034863;28;20585;-69
2021/07/31 08:40:08;;;;;;;1999.90;999.90;;;18.60;99.90;;;;;;5035116;28;20175;-70
2021/07/31 08:42:35;;;;;;;1999.90;999.90;;;18.60;99.90;;;;;;5035128;28;20407;-69
2021/07/31 08:45:02;;;;;;;1999.90;999.90;;;18.60;99.90;;;;;;5034636;28;20822;-69
2021/07/31 08:47:29;;;;;;;1999.90;999.90;;;18.40;99.90;;;;;;5034497;28;20557;-70
2021/07/31 08:49:56;;;;;;;1999.90;999.90;;;18.40;99.90;;;;;;5034770;28;20468;-70
2021/07/31 08:52:23;;;;;;;1999.90;999.90;;;18.40;99.90;;;;;;5032647;28;20411;-69
2021/07/31 08:54:49;;;;;;;1999.90;999.90;;;18.30;99.90;;;;;;5033570;28;20474;-69
2021/07/31 08:57:14;;;;;;;1999.90;999.90;;;18.30;99.90;;;;;;5034298;28;20507;-69
2021/07/31 08:59:40;;;;;;;1999.90;999.90;;;18.60;99.90;;;;;;5034172;28;20209;-68
2021/07/31 09:02:08;;;;;;;1999.90;999.90;;;18.80;99.90;;;;;;5033811;28;20169;-68
2021/07/31 09:04:33;;;;;;;1999.90;999.90;;;18.90;99.90;;;;;;5033941;28;20208;-68
2021/07/31 09:07:12;;;;;;;1999.90;999.90;;;19.20;99.90;;;;;;5033987;28;20491;-69
2021/07/31 09:09:37;;;;;;;1999.90;999.90;;;19.20;99.90;;;;;;5034087;28;20626;-69
2021/07/31 09:12:08;;;;;;;1999.90;999.90;;;19.00;99.90;;;;;;5034040;28;20435;-69
2021/07/31 09:14:35;;;;;;;1999.90;999.90;;;19.00;99.90;;;;;;5033304;28;20166;-70
2021/07/31 09:17:02;;;;;;;1999.90;999.90;;;19.00;99.90;;;;;;5034248;28;20487;-70
2021/07/31 09:19:30;;;;;;;1999.90;999.90;;;18.90;99.90;;;;;;5034043;28;20453;-68
2021/07/31 09:22:03;;;;;;;1999.90;999.90;;;19.10;99.90;;;;;;5033882;28;20802;-68
2021/07/31 09:24:29;;;;;;;1999.90;999.90;;;19.20;99.90;;;;;;5033477;28;20911;-71
2021/07/31 09:26:55;;;;;;;1999.90;999.90;;;19.00;99.90;;;;;;5033582;28;20466;-70
2021/07/31 09:29:37;;;;;;;1999.90;999.90;;;18.80;99.90;;;;;;5032821;28;20192;-70
2021/07/31 09:32:05;;;;;;;1999.90;999.90;;;18.80;99.90;;;;;;5033706;28;20768;-70
2021/07/31 09:34:46;;;;;;;1999.90;999.90;;;19.10;99.90;;;;;;5033232;28;20411;-70
2021/07/31 09:37:18;;;;;;;1999.90;999.90;;;19.30;99.90;;;;;;5033523;28;20412;-69
2021/07/31 09:39:54;;;;;;;1999.90;999.90;;;19.30;99.90;;;;;;5033462;28;20412;-70
2021/07/31 09:42:25;;;;;;;1999.90;999.90;;;19.50;99.90;;;;;;5033379;28;20437;-70
2021/07/31 09:44:51;;;;;;;1999.90;999.90;;;19.50;99.90;;;;;;5033186;28;20441;-70
2021/07/31 09:47:17;;;;;;;1999.90;999.90;;;19.50;99.90;;;;;;5033169;28;20449;-69
2021/07/31 09:49:42;;;;;;;1999.90;999.90;;;19.60;99.90;;;;;;5033292;28;20533;-70
2021/07/31 09:52:22;;;;;;;1999.90;999.90;;;19.60;99.90;;;;;;5033131;28;20224;-70
2021/07/31 09:54:48;;;;;;;1999.90;999.90;;;19.40;99.90;;;;;;5032711;28;20234;-69
2021/07/31 09:57:14;;;;;;;1999.90;999.90;;;19.40;99.90;;;;;;5033090;28;20417;-70
2021/07/31 09:59:45;;;;;;;1999.90;999.90;;;19.40;99.90;;;;;;5033029;28;20404;-71
2021/07/31 10:02:19;;;;;;;1999.90;999.90;;;19.60;99.90;;;;;;5033370;28;20503;-70
2021/07/31 10:04:46;;;;;;;1999.90;999.90;;;19.70;99.90;;;;;;5032648;28;20405;-70
2021/07/31 10:07:16;;;;;;;1999.90;999.90;;;19.70;99.90;;;;;;5032789;28;20475;-70
2021/07/31 10:09:49;;;;;;;1999.90;999.90;;;19.50;99.90;;;;;;5032820;28;20404;-70
2021/07/31 10:12:18;;;;;;;1999.90;999.90;;;19.40;99.90;;;;;;5032801;28;20513;-70
2021/07/31 10:14:44;;;;;;;1999.90;999.90;;;19.40;99.90;;;;;;5032371;28;20403;-69
2021/07/31 10:17:11;;;;;;;1999.90;999.90;;;19.40;99.90;;;;;;5031871;28;20416;-69
2021/07/31 10:19:38;;;;;;;1999.90;999.90;;;19.50;99.90;;;;;;5032172;28;20455;-69
2021/07/31 10:22:04;;;;;;;1999.90;999.90;;;19.60;99.90;;;;;;5032763;28;20414;-69
2021/07/31 10:25:01;;;;;;;1999.90;999.90;;;19.90;99.90;;;;;;5032251;28;20411;-69
2021/07/31 10:27:27;;;;;;;1999.90;999.90;;;20.20;99.90;;;;;;5032218;28;20205;-69
2021/07/31 10:29:56;;;;;;;1999.90;999.90;;;20.50;99.90;;;;;;5032499;28;20405;-69
2021/07/31 10:32:21;;;;;;;1999.90;999.90;;;20.80;99.90;;;;;;5032090;28;20168;-69
2021/07/31 10:34:48;;;;;;;1999.90;999.90;;;21.00;99.90;;;;;;5032008;28;20484;-69
2021/07/31 10:37:32;;;;;;;1999.90;999.90;;;21.20;99.90;;;;;;5032375;28;20555;-69
2021/07/31 10:39:57;;;;;;;1999.90;999.90;;;21.40;99.90;;;;;;5031229;28;20412;-69
2021/07/31 10:42:23;;;;;;;1999.90;999.90;;;21.40;99.90;;;;;;5032522;28;20775;-69
2021/07/31 10:45:25;;;;;;;1999.90;999.90;;;21.20;99.90;;;;;;5032037;28;20173;-69
2021/07/31 10:47:55;;;;;;;1999.90;999.90;;;21.30;99.90;;;;;;5025012;28;20445;-69
2021/07/31 10:50:27;;;;;;;1999.90;999.90;;;21.40;99.90;;;;;;5032174;28;20462;-69
2021/07/31 10:52:56;;;;;;;1999.90;999.90;;;21.40;99.90;;;;;;5032521;28;20498;-69
2021/07/31 10:55:24;;;;;;;1999.90;999.90;;;21.20;99.90;;;;;;5031672;28;20406;-69
2021/07/31 10:57:53;;;;;;;1999.90;999.90;;;21.10;99.90;;;;;;5031983;28;20470;-70
2021/07/31 11:00:27;;;;;;;1999.90;999.90;;;21.20;99.90;;;;;;5031820;28;20414;-69
2021/07/31 11:02:55;;;;;;;1999.90;999.90;;;21.20;99.90;;;;;;5032011;28;20377;-69
2021/07/31 11:05:21;;;;;;;1999.90;999.90;;;21.00;99.90;;;;;;5031639;28;20778;-69
2021/07/31 11:08:00;;;;;;;1999.90;999.90;;;20.80;99.90;;;;;;5031975;28;20974;-69
2021/07/31 11:10:34;;;;;;;1999.90;999.90;;;20.60;99.90;;;;;;5032059;28;20415;-69
2021/07/31 11:13:00;;;;;;;1999.90;999.90;;;20.70;99.90;;;;;;5032050;28;20403;-69
2021/07/31 11:15:26;;;;;;;1999.90;999.90;;;20.90;99.90;;;;;;5031160;28;20411;-69
2021/07/31 11:18:01;;;;;;;1999.90;999.90;;;20.90;99.90;;;;;;5031959;28;20873;-69
2021/07/31 11:20:36;;;;;;;1999.90;999.90;;;20.70;99.90;;;;;;5031819;28;20486;-69
2021/07/31 11:23:07;;;;;;;1999.90;999.90;;;20.50;99.90;;;;;;5031874;28;20410;-69
2021/07/31 11:25:34;;;;;;;1999.90;999.90;;;20.40;99.90;;;;;;5031377;28;20409;-69
2021/07/31 11:28:08;;;;;;;1999.90;999.90;;;20.40;99.90;;;;;;5031494;28;20435;-69
2021/07/31 11:30:46;;;;;;;1999.90;999.90;;;20.30;99.90;;;;;;5031625;28;21024;-69
2021/07/31 11:33:31;;;;;;;1999.90;999.90;;;20.20;99.90;;;;;;5031621;28;20410;-69
2021/07/31 11:35:58;;;;;;;1999.90;999.90;;;20.10;99.90;;;;;;5030818;28;20832;-69
2021/07/31 11:38:27;;;;;;;1999.90;999.90;;;19.90;99.90;;;;;;5031335;28;20456;-70
2021/07/31 11:41:13;;;;;;;1999.90;999.90;;;19.90;99.90;;;;;;5031262;28;20474;-70
2021/07/31 11:43:45;;;;;;;1999.90;999.90;;;20.00;99.90;;;;;;5031445;28;20430;-70
2021/07/31 11:46:22;;;;;;;1999.90;999.90;;;20.40;99.90;;;;;;5031149;28;20907;-70
2021/07/31 11:48:48;;;;;;;1999.90;999.90;;;20.80;99.90;;;;;;5031320;28;20884;-70
2021/07/31 11:51:13;;;;;;;1999.90;999.90;;;21.30;99.90;;;;;;5032596;28;20487;-70
2021/07/31 11:53:39;;;;;;;1999.90;999.90;;;21.40;99.90;;;;;;5035480;28;20693;-71
2021/07/31 11:56:20;;;;;;;1999.90;999.90;;;21.70;99.90;;;;;;5034854;28;20265;-70
2021/07/31 11:58:51;;;;;;;1999.90;999.90;;;22.10;99.90;;;;;;5035285;28;20660;-70